createdAt,value
2023-01-17T00:00:48.269Z,97274.38
2023-01-17T00:03:14.670Z,97283.81
2023-01-17T00:05:59.581Z,97282.94
2023-01-17T00:08:54.913Z,97281.25
2023-01-17T00:11:21.331Z,97276.97
2023-01-17T00:13:47.736Z,97274.34
2023-01-17T00:16:14.182Z,97266.66
2023-01-17T00:19:00.590Z,97265.78
2023-01-17T00:21:45.688Z,97263.22
2023-01-17T00:24:30.598Z,97259.81
2023-01-17T00:27:12.084Z,97264.09
2023-01-17T00:29:38.471Z,97263.25
2023-01-17T00:32:05.046Z,97265.78
2023-01-17T00:34:31.518Z,97273.50
2023-01-17T00:36:57.883Z,97274.34
2023-01-17T00:39:24.247Z,97276.94
2023-01-17T00:41:50.606Z,97281.22
2023-01-17T00:44:35.623Z,97279.50
2023-01-17T00:47:20.704Z,97284.66
2023-01-17T00:50:05.816Z,97288.06
2023-01-17T00:52:50.825Z,97292.34
2023-01-17T00:55:35.934Z,97295.78
2023-01-17T00:58:27.623Z,97290.66
2023-01-17T01:01:12.788Z,97284.66
2023-01-17T01:03:57.846Z,97291.50
2023-01-17T01:06:42.829Z,97294.94
2023-01-17T01:09:27.973Z,97294.09
2023-01-17T01:12:13.094Z,97290.63
2023-01-17T01:14:58.087Z,97293.19
2023-01-17T01:17:42.930Z,97294.91
2023-01-17T01:20:29.095Z,97285.47
2023-01-17T01:23:14.300Z,97298.34
2023-01-17T01:25:59.236Z,97300.91
2023-01-17T01:28:44.345Z,97302.63
2023-01-17T01:31:29.574Z,97300.91
2023-01-17T01:33:56.014Z,97296.63
2023-01-17T01:36:22.422Z,97302.59
2023-01-17T01:38:50.175Z,97301.72
2023-01-17T01:41:16.658Z,97304.31
2023-01-17T01:43:52.005Z,97299.16
2023-01-17T01:46:23.775Z,97306.88
2023-01-17T01:48:55.611Z,97305.97
2023-01-17T01:51:32.975Z,97314.56
2023-01-17T01:54:04.657Z,97310.25
2023-01-17T01:56:31.703Z,97313.69
2023-01-17T01:58:58.539Z,97317.13
2023-01-17T02:01:25.009Z,97320.53
2023-01-17T02:03:51.879Z,97323.09
2023-01-17T02:07:13.891Z,97322.25
2023-01-17T02:09:40.347Z,97329.09
2023-01-17T02:12:07.318Z,97328.25
2023-01-17T02:14:33.774Z,97328.25
2023-01-17T02:17:22.203Z,97335.09
2023-01-17T02:20:36.192Z,97324.81
2023-01-17T02:23:23.054Z,97334.25
2023-01-17T02:26:05.993Z,97334.25
2023-01-17T02:28:54.468Z,97335.97
2023-01-17T02:31:32.966Z,97346.28
2023-01-17T02:34:25.223Z,97345.41
2023-01-17T02:37:25.745Z,97339.44
2023-01-17T02:40:03.164Z,97342.00
2023-01-17T02:42:42.472Z,97336.84
2023-01-17T02:45:09.359Z,97342.84
2023-01-17T02:47:35.800Z,97354.00
2023-01-17T02:50:06.406Z,97351.41
2023-01-17T02:52:55.862Z,97358.28
2023-01-17T02:55:37.466Z,97360.00
2023-01-17T02:58:16.719Z,97358.28
2023-01-17T03:00:58.095Z,97368.56
2023-01-17T03:03:33.718Z,97356.56
2023-01-17T03:06:11.715Z,97371.13
2023-01-17T03:08:43.622Z,97377.97
2023-01-17T03:11:11.164Z,97385.69
2023-01-17T03:13:37.694Z,97381.44
2023-01-17T03:16:12.913Z,97385.72
2023-01-17T03:18:39.433Z,97386.59
2023-01-17T03:21:05.992Z,97393.44
2023-01-17T03:23:32.398Z,97393.44
2023-01-17T03:25:58.823Z,97394.31
2023-01-17T03:28:25.206Z,97407.16
2023-01-17T03:30:51.637Z,97409.72
2023-01-17T03:33:18.381Z,97410.59
2023-01-17T03:35:45.651Z,97413.16
2023-01-17T03:38:12.051Z,97422.59
2023-01-17T03:40:38.521Z,97417.44
2023-01-17T03:43:04.916Z,97432.88
2023-01-17T03:45:31.470Z,97438.88
2023-01-17T03:47:58.997Z,97438.88
2023-01-17T03:50:25.834Z,97444.00
2023-01-17T03:52:52.268Z,97447.44
2023-01-17T03:55:18.701Z,97450.00
2023-01-17T03:57:45.158Z,97449.13
2023-01-17T04:00:12.143Z,97455.09
2023-01-17T04:02:38.611Z,97456.81
2023-01-17T04:05:05.325Z,97463.66
2023-01-17T04:07:31.749Z,97461.94
2023-01-17T04:09:58.184Z,97470.50
2023-01-17T04:12:24.636Z,97473.06
2023-01-17T04:14:51.093Z,97476.50
2023-01-17T04:17:19.060Z,97485.88
2023-01-17T04:19:45.452Z,97472.16
2023-01-17T04:22:11.891Z,97487.56
2023-01-17T04:24:38.346Z,97481.56
2023-01-17T04:27:05.462Z,97491.84
2023-01-17T04:29:32.035Z,97492.69
2023-01-17T04:31:58.460Z,97497.84
2023-01-17T04:34:24.958Z,97483.25
2023-01-17T04:36:51.388Z,97491.81
2023-01-17T04:39:17.860Z,97495.25
2023-01-17T04:41:44.266Z,97499.53
2023-01-17T04:44:10.742Z,97502.09
2023-01-17T04:46:37.166Z,97503.81
2023-01-17T04:49:03.586Z,97504.69
2023-01-17T04:51:29.982Z,97505.53
2023-01-17T04:53:56.442Z,97514.97
2023-01-17T04:56:22.851Z,97514.09
2023-01-17T04:58:49.348Z,97510.66
2023-01-17T05:01:15.929Z,97507.25
2023-01-17T05:03:42.360Z,97514.09
2023-01-17T05:06:08.803Z,97526.94
2023-01-17T05:08:35.231Z,97525.22
2023-01-17T05:11:01.657Z,97527.78
2023-01-17T05:13:28.054Z,97529.50
2023-01-17T05:15:56.440Z,97527.78
2023-01-17T05:18:22.896Z,97526.88
2023-01-17T05:20:49.383Z,97532.00
2023-01-17T05:23:15.982Z,97539.69
2023-01-17T05:25:44.258Z,97537.97
2023-01-17T05:28:14.169Z,97540.53
2023-01-17T05:30:40.673Z,97556.78
2023-01-17T05:33:08.141Z,97550.78
2023-01-17T05:35:34.570Z,97555.06
2023-01-17T05:38:01.203Z,97561.88
2023-01-17T05:40:29.435Z,97569.63
2023-01-17T05:42:57.756Z,97565.34
2023-01-17T05:45:26.123Z,97567.06
2023-01-17T05:47:54.511Z,97576.47
2023-01-17T05:50:26.524Z,97582.41
2023-01-17T05:52:55.315Z,97582.41
2023-01-17T05:55:22.438Z,97591.81
2023-01-17T05:57:48.833Z,97590.94
2023-01-17T06:00:16.329Z,97596.06
2023-01-17T06:02:43.311Z,97599.47
2023-01-17T06:05:10.219Z,97612.25
2023-01-17T06:07:36.624Z,97609.66
2023-01-17T06:10:03.165Z,97606.22
2023-01-17T06:12:29.576Z,97610.50
2023-01-17T06:14:56.008Z,97615.63
2023-01-17T06:17:22.445Z,97620.72
2023-01-17T06:19:48.869Z,97626.66
2023-01-17T06:22:15.265Z,97637.00
2023-01-17T06:24:41.682Z,97638.72
2023-01-17T06:27:11.170Z,97636.94
2023-01-17T06:29:37.840Z,97643.78
2023-01-17T06:32:04.611Z,97646.31
2023-01-17T06:34:31.274Z,97643.75
2023-01-17T06:36:57.971Z,97639.47
2023-01-17T06:39:24.418Z,97645.44
2023-01-17T06:41:50.856Z,97642.03
2023-01-17T06:44:17.268Z,97641.16
2023-01-17T06:46:45.035Z,97654.00
2023-01-17T06:49:11.562Z,97648.84
2023-01-17T06:51:37.987Z,97665.09
2023-01-17T06:54:04.397Z,97673.66
2023-01-17T06:56:31.986Z,97680.50
2023-01-17T06:58:58.434Z,97692.53
2023-01-17T07:01:25.415Z,97702.81
2023-01-17T07:03:52.500Z,97695.94
2023-01-17T07:06:19.201Z,97711.34
2023-01-17T07:08:45.660Z,97712.22
2023-01-17T07:11:12.121Z,97726.75
2023-01-17T07:13:38.924Z,97731.06
2023-01-17T07:16:06.300Z,97733.63
2023-01-17T07:18:33.573Z,97738.78
2023-01-17T07:21:00.248Z,97749.03
2023-01-17T07:23:27.074Z,97751.59
2023-01-17T07:25:55.160Z,97758.53
2023-01-17T07:28:21.893Z,97767.13
2023-01-17T07:30:48.465Z,97768.84
2023-01-17T07:33:15.138Z,97779.13
2023-01-17T07:35:41.831Z,97799.66
2023-01-17T07:38:16.938Z,97800.38
2023-01-17T07:40:43.478Z,97801.25
2023-01-17T07:43:16.590Z,97808.75
2023-01-17T07:45:50.482Z,97819.63
2023-01-17T07:48:18.161Z,97808.31
2023-01-17T07:50:44.647Z,97814.22
2023-01-17T07:53:11.163Z,97821.84
2023-01-17T07:55:37.729Z,97820.94
2023-01-17T07:58:04.114Z,97826.06
2023-01-17T08:00:30.726Z,97837.19
2023-01-17T08:02:58.611Z,97838.88
2023-01-17T08:05:25.566Z,97847.41
2023-01-17T08:07:52.242Z,97847.34
2023-01-17T08:10:18.953Z,97834.59
2023-01-17T08:12:47.034Z,97837.03
2023-01-17T08:15:14.398Z,97840.44
2023-01-17T08:17:48.232Z,97855.84
2023-01-17T08:20:16.069Z,97856.69
2023-01-17T08:22:42.639Z,97860.13
2023-01-17T08:25:09.486Z,97861.84
2023-01-17T08:27:36.393Z,97877.22
2023-01-17T08:30:03.544Z,97870.38
2023-01-17T08:32:29.952Z,97875.53
2023-01-17T08:34:57.214Z,97880.69
2023-01-17T08:37:23.900Z,97885.13
2023-01-17T08:39:50.550Z,97887.81
2023-01-17T08:42:17.260Z,97894.69
2023-01-17T08:44:44.082Z,97900.72
2023-01-17T08:47:10.510Z,97896.44
2023-01-17T08:49:37.022Z,97905.81
2023-01-17T08:52:03.817Z,97910.91
2023-01-17T08:54:30.261Z,97913.47
2023-01-17T08:56:56.746Z,97913.50
2023-01-17T08:59:23.168Z,97916.06
2023-01-17T09:01:49.754Z,97921.16
2023-01-17T09:04:16.343Z,97920.19
2023-01-17T09:06:45.340Z,97929.72
2023-01-17T09:09:11.893Z,97934.03
2023-01-17T09:11:38.433Z,97936.59
2023-01-17T09:14:04.911Z,97945.19
2023-01-17T09:16:31.362Z,97940.00
2023-01-17T09:18:58.556Z,97944.38
2023-01-17T09:21:25.983Z,97959.78
2023-01-17T09:23:52.778Z,97953.75
2023-01-17T09:26:23.034Z,97958.09
2023-01-17T09:28:50.200Z,97963.34
2023-01-17T09:31:17.820Z,97966.75
2023-01-17T09:33:44.345Z,97971.06
2023-01-17T09:36:10.977Z,97975.41
2023-01-17T09:38:37.860Z,97984.06
2023-01-17T09:41:15.733Z,97984.91
2023-01-17T09:43:49.444Z,97983.25
2023-01-17T09:46:29.808Z,97991.84
2023-01-17T09:49:06.067Z,97992.72
2023-01-17T09:51:32.939Z,98003.88
2023-01-17T09:54:00.312Z,98008.25
2023-01-17T09:56:38.853Z,98008.25
2023-01-17T09:59:32.229Z,98010.03
2023-01-17T10:02:19.069Z,98017.03
2023-01-17T10:05:16.427Z,98018.81
2023-01-17T10:08:04.626Z,98008.50
2023-01-17T10:10:41.974Z,98015.41
2023-01-17T10:13:25.490Z,98024.91
2023-01-17T10:16:12.670Z,98021.53
2023-01-17T10:19:04.305Z,98014.72
2023-01-17T10:22:02.743Z,98028.38
2023-01-17T10:25:04.538Z,98012.16
2023-01-17T10:27:37.169Z,98018.19
2023-01-17T10:30:13.724Z,98027.66
2023-01-17T10:32:42.554Z,98024.34
2023-01-17T10:35:18.592Z,98023.56
2023-01-17T10:37:45.473Z,98039.03
2023-01-17T10:40:23.023Z,98032.31
2023-01-17T10:42:58.082Z,98044.34
2023-01-17T10:45:28.692Z,98028.09
2023-01-17T10:48:04.816Z,98029.91
2023-01-17T10:50:41.247Z,98031.69
2023-01-17T10:53:10.940Z,98022.34
2023-01-17T10:55:53.316Z,98037.81
2023-01-17T10:58:19.840Z,98036.97
2023-01-17T11:00:54.076Z,98037.03
2023-01-17T11:03:21.091Z,98037.03
2023-01-17T11:06:23.204Z,98036.25
2023-01-17T11:09:00.984Z,98032.00
2023-01-17T11:11:32.984Z,98028.50
2023-01-17T11:14:01.570Z,98038.75
2023-01-17T11:16:32.430Z,98033.63
2023-01-17T11:19:21.516Z,98035.34
2023-01-17T11:21:53.692Z,98039.66
2023-01-17T11:24:26.385Z,98037.13
2023-01-17T11:26:52.819Z,98038.84
2023-01-17T11:29:30.759Z,98039.75
2023-01-17T11:31:57.527Z,98042.38
2023-01-17T11:34:26.430Z,98044.09
2023-01-17T11:37:18.479Z,98046.66
2023-01-17T11:39:48.083Z,98048.41
2023-01-17T11:42:34.663Z,98047.63
2023-01-17T11:45:27.016Z,98041.66
2023-01-17T11:48:12.677Z,98041.66
2023-01-17T11:50:41.848Z,98047.69
2023-01-17T11:53:24.825Z,98040.81
2023-01-17T11:56:07.745Z,98041.66
2023-01-17T11:58:36.201Z,98050.25
2023-01-17T12:01:23.847Z,98053.72
2023-01-17T12:04:00.794Z,98056.28
2023-01-17T12:06:57.304Z,98049.44
2023-01-17T12:09:49.100Z,98061.44
2023-01-17T12:12:47.849Z,98061.38
2023-01-17T12:15:32.373Z,98061.41
2023-01-17T12:18:13.916Z,98060.53
2023-01-17T12:20:58.785Z,98066.56
2023-01-17T12:23:31.617Z,98061.44
2023-01-17T12:26:10.552Z,98070.00
2023-01-17T12:29:10.895Z,98070.00
2023-01-17T12:31:49.745Z,98063.06
2023-01-17T12:34:30.246Z,98069.91
2023-01-17T12:37:15.995Z,98071.66
2023-01-17T12:40:02.382Z,98071.66
2023-01-17T12:42:34.321Z,98079.38
2023-01-17T12:45:21.463Z,98075.94
2023-01-17T12:47:54.457Z,98078.53
2023-01-17T12:50:33.820Z,98087.09
2023-01-17T12:53:18.722Z,98082.75
2023-01-17T12:56:02.727Z,98087.94
2023-01-17T12:58:41.630Z,98087.03
2023-01-17T13:01:43.101Z,98096.41
2023-01-17T13:04:21.147Z,98099.84
2023-01-17T13:07:05.197Z,98098.97
2023-01-17T13:09:38.001Z,98104.13
2023-01-17T13:12:07.294Z,98109.28
2023-01-17T13:14:33.709Z,98111.00
2023-01-17T13:17:24.484Z,98111.00
2023-01-17T13:20:17.294Z,98116.19
2023-01-17T13:22:44.200Z,98122.97
2023-01-17T13:25:34.994Z,98129.84
2023-01-17T13:28:14.881Z,98133.22
2023-01-17T13:30:54.713Z,98137.56
2023-01-17T13:33:39.978Z,98128.97
2023-01-17T13:36:40.758Z,98143.47
2023-01-17T13:39:25.454Z,98139.19
2023-01-17T13:41:56.771Z,98137.34
2023-01-17T13:44:25.967Z,98145.06
2023-01-17T13:47:04.144Z,98151.03
2023-01-17T13:49:31.542Z,98147.56
2023-01-17T13:52:12.235Z,98151.84
2023-01-17T13:54:50.226Z,98166.41
2023-01-17T13:57:27.910Z,98165.56
2023-01-17T13:59:57.536Z,98170.69
2023-01-17T14:02:32.992Z,98176.66
2023-01-17T14:05:21.157Z,98178.34
2023-01-17T14:07:59.491Z,98169.69
2023-01-17T14:10:40.881Z,98171.41
2023-01-17T14:13:37.656Z,98173.09
2023-01-17T14:16:25.662Z,98174.78
2023-01-17T14:18:53.100Z,98180.78
2023-01-17T14:21:23.572Z,98180.78
2023-01-17T14:24:10.354Z,98189.31
2023-01-17T14:26:58.925Z,98183.31
2023-01-17T14:29:53.884Z,98184.16
2023-01-17T14:32:23.118Z,98190.06
2023-01-17T14:34:51.348Z,98189.22
2023-01-17T14:37:32.899Z,98194.31
2023-01-17T14:40:00.786Z,98203.72
2023-01-17T14:42:29.552Z,98195.13
2023-01-17T14:45:01.268Z,98195.09
2023-01-17T14:47:31.625Z,98206.25
2023-01-17T14:50:24.839Z,98207.94
2023-01-17T14:53:13.011Z,98211.19
2023-01-17T14:55:48.458Z,98209.38
2023-01-17T14:58:17.580Z,98202.50
2023-01-17T15:00:44.139Z,98209.19
2023-01-17T15:03:11.837Z,98213.41
2023-01-17T15:05:40.947Z,98210.78
2023-01-17T15:08:14.776Z,98216.66
2023-01-17T15:10:58.360Z,98212.38
2023-01-17T15:13:43.389Z,98213.25
2023-01-17T15:16:22.259Z,98220.09
2023-01-17T15:18:49.016Z,98220.03
2023-01-17T15:21:20.620Z,98220.03
2023-01-17T15:23:50.409Z,98224.19
2023-01-17T15:26:18.425Z,98233.53
2023-01-17T15:28:45.283Z,98231.72
2023-01-17T15:31:44.843Z,98239.38
2023-01-17T15:34:31.148Z,98238.47
2023-01-17T15:37:00.541Z,98242.66
2023-01-17T15:39:32.282Z,98246.03
2023-01-17T15:42:00.988Z,98252.81
2023-01-17T15:44:47.367Z,98249.34
2023-01-17T15:47:28.687Z,98248.31
2023-01-17T15:49:55.161Z,98248.25
2023-01-17T15:52:21.763Z,98241.34
2023-01-17T15:54:59.445Z,98250.66
2023-01-17T15:57:33.431Z,98250.53
2023-01-17T16:00:08.606Z,98254.75
2023-01-17T16:02:58.676Z,98258.03
2023-01-17T16:05:25.699Z,98250.19
2023-01-17T16:07:53.803Z,98257.78
2023-01-17T16:10:22.544Z,98256.84
2023-01-17T16:12:51.247Z,98254.97
2023-01-17T16:15:18.608Z,98244.53
2023-01-17T16:17:47.460Z,98247.91
2023-01-17T16:20:20.600Z,98247.84
2023-01-17T16:22:47.698Z,98252.06
2023-01-17T16:25:19.743Z,98257.09
2023-01-17T16:27:46.616Z,98257.88
2023-01-17T16:30:18.396Z,98264.59
2023-01-17T16:32:49.263Z,98259.34
2023-01-17T16:35:24.735Z,98261.84
2023-01-17T16:37:53.249Z,98267.78
2023-01-17T16:40:21.072Z,98270.25
2023-01-17T16:42:47.884Z,98265.94
2023-01-17T16:45:14.352Z,98272.63
2023-01-17T16:47:42.047Z,98277.69
2023-01-17T16:50:11.114Z,98275.88
2023-01-17T16:52:37.593Z,98280.06
2023-01-17T16:55:06.711Z,98274.84
2023-01-17T16:57:33.139Z,98280.75
2023-01-17T16:59:59.638Z,98281.53
2023-01-17T17:02:26.163Z,98283.13
2023-01-17T17:04:52.654Z,98281.31
2023-01-17T17:07:19.087Z,98282.94
2023-01-17T17:09:45.492Z,98282.78
2023-01-17T17:12:11.912Z,98275.84
2023-01-17T17:14:38.350Z,98278.34
2023-01-17T17:17:04.862Z,98290.19
2023-01-17T17:19:31.256Z,98291.84
2023-01-17T17:21:58.676Z,98291.78
2023-01-17T17:24:25.109Z,98300.22
2023-01-17T17:26:51.626Z,98300.97
2023-01-17T17:29:18.082Z,98308.59
2023-01-17T17:31:44.680Z,98307.75
2023-01-17T17:34:13.035Z,98295.69
2023-01-17T17:36:39.751Z,98299.06
2023-01-17T17:39:09.153Z,98292.16
2023-01-17T17:41:36.582Z,98288.66
2023-01-17T17:44:03.947Z,98291.16
2023-01-17T17:46:30.988Z,98298.72
2023-01-17T17:48:58.286Z,98295.94
2023-01-17T17:51:29.715Z,98306.00
2023-01-17T17:54:01.123Z,98308.44
2023-01-17T17:56:28.765Z,98305.84
2023-01-17T17:58:56.747Z,98306.53
2023-01-17T18:01:24.071Z,98308.16
2023-01-17T18:03:55.983Z,98321.69
2023-01-17T18:06:23.026Z,98316.50
2023-01-17T18:08:51.792Z,98324.09
2023-01-17T18:11:21.283Z,98324.88
2023-01-17T18:13:50.398Z,98326.47
2023-01-17T18:16:19.888Z,98327.22
2023-01-17T18:18:51.704Z,98327.09
2023-01-17T18:21:27.828Z,98328.72
2023-01-17T18:24:01.755Z,98325.25
2023-01-17T18:26:34.125Z,98328.53
2023-01-17T18:29:01.343Z,98322.44
2023-01-17T18:31:28.542Z,98322.41
2023-01-17T18:33:56.159Z,98330.06
2023-01-17T18:36:23.703Z,98324.88
2023-01-17T18:38:51.648Z,98332.50
2023-01-17T18:41:26.637Z,98328.16
2023-01-17T18:43:53.439Z,98332.34
2023-01-17T18:46:20.044Z,98328.03
2023-01-17T18:48:46.503Z,98332.19
2023-01-17T18:51:14.974Z,98335.53
2023-01-17T18:53:42.683Z,98327.75
2023-01-17T18:56:11.634Z,98334.44
2023-01-17T18:58:41.670Z,98331.69
2023-01-17T19:01:18.619Z,98334.00
2023-01-17T19:03:46.873Z,98334.72
2023-01-17T19:06:18.493Z,98330.41
2023-01-17T19:08:45.166Z,98333.69
2023-01-17T19:11:12.370Z,98333.66
2023-01-17T19:13:39.332Z,98337.91
2023-01-17T19:16:08.901Z,98340.31
2023-01-17T19:18:35.298Z,98335.94
2023-01-17T19:21:10.471Z,98334.00
2023-01-17T19:23:37.738Z,98345.84
2023-01-17T19:26:05.992Z,98350.78
2023-01-17T19:28:35.428Z,98345.63
2023-01-17T19:31:10.052Z,98347.22
2023-01-17T19:33:37.654Z,98356.44
2023-01-17T19:36:06.014Z,98357.22
2023-01-17T19:38:34.380Z,98359.66
2023-01-17T19:41:14.016Z,98370.69
2023-01-17T19:43:42.008Z,98375.69
2023-01-17T19:46:09.346Z,98372.97
2023-01-17T19:48:36.729Z,98370.31
2023-01-17T19:51:08.141Z,98374.50
2023-01-17T19:53:35.946Z,98379.59
2023-01-17T19:56:20.194Z,98383.78
2023-01-17T19:58:47.128Z,98387.97
2023-01-17T20:01:15.697Z,98398.94
2023-01-17T20:03:44.134Z,98390.28
2023-01-17T20:06:12.397Z,98389.34
2023-01-17T20:08:38.856Z,98394.34
2023-01-17T20:11:07.388Z,98390.00
2023-01-17T20:13:33.907Z,98393.25
2023-01-17T20:16:08.537Z,98390.63
2023-01-17T20:18:35.630Z,98395.59
2023-01-17T20:21:03.944Z,98404.00
2023-01-17T20:23:35.121Z,98399.66
2023-01-17T20:26:03.381Z,98397.84
2023-01-17T20:28:31.350Z,98399.50
2023-01-17T20:31:04.788Z,98389.25
2023-01-17T20:33:31.227Z,98394.25
2023-01-17T20:36:10.597Z,98401.91
2023-01-17T20:38:44.617Z,98400.16
2023-01-17T20:41:22.746Z,98408.53
2023-01-17T20:43:51.287Z,98408.53
2023-01-17T20:46:19.204Z,98412.81
2023-01-17T20:48:47.287Z,98421.28
2023-01-17T20:51:14.899Z,98421.28
2023-01-17T20:53:42.317Z,98425.47
2023-01-17T20:56:09.498Z,98430.41
2023-01-17T20:58:35.928Z,98443.19
2023-01-17T21:01:02.408Z,98443.13
2023-01-17T21:03:29.254Z,98446.47
2023-01-17T21:06:07.659Z,98440.50
2023-01-17T21:08:36.119Z,98450.59
2023-01-17T21:11:02.556Z,98464.28
2023-01-17T21:13:28.989Z,98465.91
2023-01-17T21:15:55.655Z,98467.59
2023-01-17T21:18:23.641Z,98473.50
2023-01-17T21:20:50.466Z,98476.81
2023-01-17T21:23:20.123Z,98482.69
2023-01-17T21:25:54.788Z,98489.47
2023-01-17T21:28:23.158Z,98491.97
2023-01-17T21:30:52.447Z,98492.78
2023-01-17T21:33:20.043Z,98504.66
2023-01-17T21:35:46.619Z,98498.56
2023-01-17T21:38:16.444Z,98502.75
2023-01-17T21:40:43.570Z,98501.81
2023-01-17T21:43:10.579Z,98502.63
2023-01-17T21:45:41.477Z,98503.44
2023-01-17T21:48:12.200Z,98506.72
2023-01-17T21:50:39.287Z,98505.03
2023-01-17T21:53:05.910Z,98510.06
2023-01-17T21:55:50.983Z,98502.34
2023-01-17T21:58:36.627Z,98520.16
2023-01-17T22:01:15.933Z,98515.03
2023-01-17T22:03:42.793Z,98512.69
2023-01-17T22:06:10.224Z,98514.50
2023-01-17T22:08:37.315Z,98519.72
2023-01-17T22:11:09.098Z,98524.78
2023-01-17T22:13:35.848Z,98522.16
2023-01-17T22:16:05.248Z,98521.28
2023-01-17T22:18:33.684Z,98519.50
2023-01-17T22:21:04.234Z,98519.41
2023-01-17T22:23:30.825Z,98521.88
2023-01-17T22:26:09.659Z,98526.06
2023-01-17T22:28:36.786Z,98528.53
2023-01-17T22:31:08.827Z,98530.22
2023-01-17T22:33:39.193Z,98535.31
2023-01-17T22:36:06.449Z,98536.19
2023-01-17T22:38:33.513Z,98529.25
2023-01-17T22:41:16.569Z,98532.56
2023-01-17T22:43:45.208Z,98532.50
2023-01-17T22:46:14.150Z,98523.91
2023-01-17T22:48:41.096Z,98520.50
2023-01-17T22:51:10.121Z,98523.84
2023-01-17T22:53:41.379Z,98512.72
2023-01-17T22:56:10.025Z,98511.81
2023-01-17T22:58:36.668Z,98516.03
2023-01-17T23:01:08.037Z,98510.88
2023-01-17T23:03:34.971Z,98509.13
2023-01-17T23:06:16.081Z,98509.94
2023-01-17T23:08:44.413Z,98508.16
2023-01-17T23:11:42.249Z,98514.13
2023-01-17T23:14:10.243Z,98515.03
2023-01-17T23:16:56.477Z,98510.66
2023-01-17T23:19:23.138Z,98509.78
2023-01-17T23:22:14.396Z,98505.44
2023-01-17T23:24:45.373Z,98514.75
2023-01-17T23:27:39.644Z,98515.44
2023-01-17T23:30:11.756Z,98497.31
2023-01-17T23:32:39.417Z,98492.22
2023-01-17T23:35:06.644Z,98493.84
2023-01-17T23:37:51.676Z,98492.78
2023-01-17T23:40:18.309Z,98487.69
2023-01-17T23:43:03.369Z,98486.88
2023-01-17T23:45:29.851Z,98485.16
2023-01-17T23:47:56.351Z,98476.69
2023-01-17T23:50:22.795Z,98478.38
2023-01-17T23:52:49.195Z,98462.16
2023-01-17T23:55:15.703Z,98468.13
2023-01-17T23:57:42.104Z,98462.09
